createdAt,value
2016-06-10T00:00:16.083Z,92.6
2016-06-10T00:01:16.086Z,92.6
2016-06-10T00:02:16.089Z,92.6
2016-06-10T00:03:16.076Z,92.88
2016-06-10T00:04:16.079Z,92.69
2016-06-10T00:05:16.083Z,93.55
2016-06-10T00:06:16.085Z,93.55
2016-06-10T00:07:16.089Z,93.31
2016-06-10T00:08:16.092Z,93.17
2016-06-10T00:09:16.705Z,93.41
2016-06-10T00:10:16.083Z,93.02
2016-06-10T00:11:16.086Z,92.93
2016-06-10T00:12:16.089Z,92.93
2016-06-10T00:13:16.232Z,93.7
2016-06-10T00:14:16.079Z,93.7
2016-06-10T00:15:16.098Z,93.7
2016-06-10T00:16:16.085Z,93.6
2016-06-10T00:17:16.089Z,93.7
2016-06-10T00:18:16.092Z,93.7
2016-06-10T00:19:16.094Z,93.6
2016-06-10T00:20:16.097Z,93.88
2016-06-10T00:21:16.085Z,93.79
2016-06-10T00:22:15.948Z,93.79
2016-06-10T00:23:16.090Z,93.6
2016-06-10T00:24:16.173Z,93.27
2016-06-10T00:25:16.301Z,93.84
2016-06-10T00:26:16.100Z,93.84
2016-06-10T00:27:16.088Z,94.12
2016-06-10T00:28:16.106Z,93.84
2016-06-10T00:29:16.094Z,94.03
2016-06-10T00:30:16.097Z,94.51
2016-06-10T00:31:16.100Z,94.12
2016-06-10T00:32:16.103Z,94.51
2016-06-10T00:33:16.106Z,94.6
2016-06-10T00:34:16.110Z,94.32
2016-06-10T00:35:16.097Z,94.12
2016-06-10T00:36:16.116Z,94.6
2016-06-10T00:37:16.119Z,95.08
2016-06-10T00:38:16.106Z,94.7
2016-06-10T00:39:16.765Z,94.89
2016-06-10T00:40:16.128Z,94.7
2016-06-10T00:41:16.115Z,94.79
2016-06-10T00:42:16.103Z,95.46
2016-06-10T00:43:16.107Z,95.08
2016-06-10T00:44:16.109Z,95.46
2016-06-10T00:45:16.112Z,94.89
2016-06-10T00:46:16.116Z,94.74
2016-06-10T00:47:16.103Z,95.46
2016-06-10T00:48:16.106Z,94.74
2016-06-10T00:49:16.108Z,95.32
2016-06-10T00:50:16.112Z,95.22
2016-06-10T00:51:16.131Z,95.22
2016-06-10T00:52:16.118Z,95.12
2016-06-10T00:53:16.121Z,95.22
2016-06-10T00:54:16.124Z,95.12
2016-06-10T00:55:16.627Z,95.7
2016-06-10T00:56:16.114Z,95.61
2016-06-10T00:57:16.117Z,95.22
2016-06-10T00:58:16.120Z,95.7
2016-06-10T00:59:16.124Z,95.79
2016-06-10T01:00:16.112Z,95.51
2016-06-10T01:01:16.146Z,95.98
2016-06-10T01:02:16.118Z,95.51
2016-06-10T01:03:16.121Z,95.61
2016-06-10T01:04:16.124Z,95.98
2016-06-10T01:05:16.127Z,95.89
2016-06-10T01:06:16.145Z,95.41
2016-06-10T01:07:16.133Z,95.89
2016-06-10T01:08:16.120Z,95.89
2016-06-10T01:09:16.123Z,95.98
2016-06-10T01:10:16.127Z,95.89
2016-06-10T01:11:16.130Z,96.36
2016-06-10T01:12:16.133Z,96.56
2016-06-10T01:13:16.136Z,96.46
2016-06-10T01:14:15.983Z,96.56
2016-06-10T01:15:16.126Z,96.27
2016-06-10T01:16:16.145Z,96.84
2016-06-10T01:17:16.132Z,96.75
2016-06-10T01:18:16.135Z,96.75
2016-06-10T01:19:16.138Z,96.65
2016-06-10T01:20:16.142Z,96.27
2016-06-10T01:21:16.129Z,96.27
2016-06-10T01:22:16.132Z,96.46
2016-06-10T01:23:16.135Z,96.46
2016-06-10T01:24:16.139Z,96.56
2016-06-10T01:25:16.141Z,96.17
2016-06-10T01:26:16.145Z,96.84
2016-06-10T01:27:16.131Z,96.36
2016-06-10T01:28:16.151Z,96.36
2016-06-10T01:29:16.137Z,96.84
2016-06-10T01:30:16.157Z,96.84
2016-06-10T01:31:15.987Z,96.17
2016-06-10T01:32:16.147Z,96.56
2016-06-10T01:33:16.135Z,96.27
2016-06-10T01:34:16.138Z,96.84
2016-06-10T01:35:16.141Z,96.75
2016-06-10T01:36:16.145Z,96.84
2016-06-10T01:37:16.147Z,96.94
2016-06-10T01:38:16.134Z,96.75
2016-06-10T01:39:16.138Z,96.94
2016-06-10T01:40:16.141Z,97.13
2016-06-10T01:41:16.143Z,97.03
2016-06-10T01:42:15.991Z,96.65
2016-06-10T01:43:16.150Z,96.65
2016-06-10T01:44:16.137Z,96.94
2016-06-10T01:45:16.140Z,96.94
2016-06-10T01:46:15.987Z,96.94
2016-06-10T01:47:16.146Z,96.27
2016-06-10T01:48:16.149Z,96.61
2016-06-10T01:49:16.152Z,96.27
2016-06-10T01:50:16.155Z,96.7
2016-06-10T01:51:16.144Z,96.65
2016-06-10T01:52:16.147Z,96.65
2016-06-10T01:53:16.149Z,96.8
2016-06-10T01:54:16.153Z,96.56
2016-06-10T01:55:16.546Z,96.51
2016-06-10T01:56:16.158Z,96.56
2016-06-10T01:57:16.005Z,96.75
2016-06-10T01:58:16.149Z,96.56
2016-06-10T01:59:16.152Z,96.51
2016-06-10T02:00:16.155Z,96.84
2016-06-10T02:01:16.158Z,96.84
2016-06-10T02:02:16.161Z,96.61
2016-06-10T02:03:16.148Z,96.61
2016-06-10T02:04:16.167Z,96.61
2016-06-10T02:05:16.155Z,96.41
2016-06-10T02:06:16.157Z,96.32
2016-06-10T02:07:16.161Z,96.22
2016-06-10T02:08:16.164Z,96.89
2016-06-10T02:09:16.166Z,96.51
2016-06-10T02:10:16.920Z,96.61
2016-06-10T02:11:16.501Z,96.51
2016-06-10T02:12:16.161Z,96.51
2016-06-10T02:13:16.211Z,96.61
2016-06-10T02:14:16.167Z,96.51
2016-06-10T02:15:16.154Z,96.61
2016-06-10T02:16:16.173Z,96.32
2016-06-10T02:17:16.161Z,96.32
2016-06-10T02:18:16.163Z,96.13
2016-06-10T02:19:16.166Z,95.84
2016-06-10T02:20:16.169Z,96.03
2016-06-10T02:21:16.157Z,96.13
2016-06-10T02:22:16.161Z,96.03
2016-06-10T02:23:16.178Z,95.84
2016-06-10T02:24:16.167Z,96.03
2016-06-10T02:25:16.529Z,95.27
2016-06-10T02:26:16.173Z,95.65
2016-06-10T02:27:16.160Z,95.65
2016-06-10T02:28:16.179Z,95.65
2016-06-10T02:29:16.166Z,95.17
2016-06-10T02:30:16.170Z,95.65
2016-06-10T02:31:16.172Z,95.75
2016-06-10T02:32:16.019Z,94.98
2016-06-10T02:33:16.179Z,95.27
2016-06-10T02:34:16.182Z,94.27
2016-06-10T02:35:16.168Z,95.22
2016-06-10T02:36:16.171Z,94.84
2016-06-10T02:37:16.191Z,94.74
2016-06-10T02:38:16.232Z,94.84
2016-06-10T02:39:16.272Z,94.74
2016-06-10T02:40:16.641Z,94.17
2016-06-10T02:41:16.339Z,94.65
2016-06-10T02:42:16.370Z,94.07
2016-06-10T02:43:16.386Z,93.79
2016-06-10T02:44:16.403Z,93.7
2016-06-10T02:45:16.420Z,93.79
2016-06-10T02:46:16.437Z,93.7
2016-06-10T02:47:16.449Z,93.12
2016-06-10T02:48:16.457Z,93.51
2016-06-10T02:49:16.450Z,92.55
2016-06-10T02:50:16.457Z,92.79
2016-06-10T02:51:16.465Z,92.65
2016-06-10T02:52:16.471Z,92.74
2016-06-10T02:53:16.460Z,92.83
2016-06-10T02:54:16.465Z,92.26
2016-06-10T02:55:17.252Z,92.36
2016-06-10T02:56:16.475Z,92.36
2016-06-10T02:57:16.480Z,91.88
2016-06-10T02:58:16.480Z,91.6
2016-06-10T02:59:16.468Z,91.88
2016-06-10T03:00:16.472Z,91.6
2016-06-10T03:01:16.476Z,91.69
2016-06-10T03:02:16.480Z,91.88
2016-06-10T03:03:16.468Z,91.78
2016-06-10T03:04:16.470Z,91.69
2016-06-10T03:05:16.473Z,91.12
2016-06-10T03:06:16.493Z,90.83
2016-06-10T03:07:16.495Z,91.12
2016-06-10T03:08:16.483Z,90.83
2016-06-10T03:09:16.486Z,90.45
2016-06-10T03:10:16.567Z,91.02
2016-06-10T03:11:16.477Z,90.45
2016-06-10T03:12:16.480Z,89.78
2016-06-10T03:13:16.483Z,90.36
2016-06-10T03:14:16.501Z,90.07
2016-06-10T03:15:16.490Z,89.97
2016-06-10T03:16:16.492Z,89.5
2016-06-10T03:17:16.479Z,89.88
2016-06-10T03:18:16.483Z,89.59
2016-06-10T03:19:16.485Z,89.4
2016-06-10T03:20:16.488Z,89.12
2016-06-10T03:21:16.491Z,89.4
2016-06-10T03:22:16.495Z,89.36
2016-06-10T03:23:16.482Z,89.54
2016-06-10T03:24:16.484Z,89.17
2016-06-10T03:25:16.504Z,89.17
2016-06-10T03:26:16.491Z,89.64
2016-06-10T03:27:16.494Z,89.17
2016-06-10T03:28:16.497Z,89.07
2016-06-10T03:29:16.500Z,89.26
2016-06-10T03:30:16.488Z,89.36
2016-06-10T03:31:16.492Z,89.64
2016-06-10T03:32:16.494Z,89.36
2016-06-10T03:33:16.497Z,90.12
2016-06-10T03:34:16.501Z,89.64
2016-06-10T03:35:16.503Z,89.74
2016-06-10T03:36:16.506Z,89.64
2016-06-10T03:37:16.494Z,89.74
2016-06-10T03:38:16.497Z,89.74
2016-06-10T03:39:16.500Z,89.83
2016-06-10T03:40:17.144Z,90.03
2016-06-10T03:41:16.522Z,89.83
2016-06-10T03:42:16.493Z,90.03
2016-06-10T03:43:16.497Z,90.69
2016-06-10T03:44:16.499Z,90.41
2016-06-10T03:45:16.503Z,90.41
2016-06-10T03:46:16.491Z,90.12
2016-06-10T03:47:16.352Z,90.79
2016-06-10T03:48:16.497Z,90.88
2016-06-10T03:49:16.500Z,90.5
2016-06-10T03:50:16.503Z,90.59
2016-06-10T03:51:16.506Z,90.5
2016-06-10T03:52:16.493Z,91.17
2016-06-10T03:53:16.496Z,91.17
2016-06-10T03:54:16.499Z,91.17
2016-06-10T03:55:16.346Z,90.98
2016-06-10T03:56:16.974Z,90.83
2016-06-10T03:57:16.509Z,89.88
2016-06-10T03:58:16.497Z,89.45
2016-06-10T03:59:16.515Z,88.97
2016-06-10T04:00:16.502Z,88.2
2016-06-10T04:01:16.506Z,87.39
2016-06-10T04:02:16.509Z,87.01
2016-06-10T04:03:16.511Z,86.34
2016-06-10T04:04:16.515Z,85.58
2016-06-10T04:05:16.518Z,85.24
2016-06-10T04:06:16.505Z,84.19
2016-06-10T04:07:16.508Z,83.37
2016-06-10T04:08:16.527Z,82.7
2016-06-10T04:09:16.514Z,81.11
2016-06-10T04:10:16.517Z,80.44
2016-06-10T04:11:16.520Z,79.05
2016-06-10T04:12:16.523Z,78.28
2016-06-10T04:13:16.574Z,76.12
2016-06-10T04:14:16.530Z,74.58
2016-06-10T04:15:16.532Z,73.91
2016-06-10T04:16:16.520Z,73.05
2016-06-10T04:17:16.522Z,72.03
2016-06-10T04:18:16.526Z,70.79
2016-06-10T04:19:16.373Z,70.31
2016-06-10T04:20:16.532Z,69.83
2016-06-10T04:21:16.535Z,68.87
2016-06-10T04:22:16.524Z,68.43
2016-06-10T04:23:16.541Z,67.38
2016-06-10T04:24:16.545Z,66.74
2016-06-10T04:25:16.532Z,66
2016-06-10T04:26:16.645Z,64.47
2016-06-10T04:27:16.539Z,63.16
2016-06-10T04:28:16.542Z,62.01
2016-06-10T04:29:16.560Z,60.88
2016-06-10T04:30:16.548Z,60.31
2016-06-10T04:31:16.551Z,59.34
2016-06-10T04:32:16.554Z,59.09
2016-06-10T04:33:16.557Z,57.17
2016-06-10T04:34:16.560Z,57.1
2016-06-10T04:35:16.406Z,56.43
2016-06-10T04:36:16.566Z,56.04
2016-06-10T04:37:16.569Z,54.53
2016-06-10T04:38:16.572Z,52.7
2016-06-10T04:39:16.575Z,52.03
2016-06-10T04:40:16.578Z,51.84
2016-06-10T04:41:16.862Z,52.89
2016-06-10T04:42:16.585Z,51.93
2016-06-10T04:43:16.587Z,52.8
2016-06-10T04:44:16.575Z,52.7
2016-06-10T04:45:16.594Z,51.55
2016-06-10T04:46:16.597Z,51.67
2016-06-10T04:47:16.600Z,51.93
2016-06-10T04:48:16.696Z,51.55
2016-06-10T04:49:16.449Z,51.74
2016-06-10T04:50:16.609Z,50.42
2016-06-10T04:51:16.612Z,50.13
2016-06-10T04:52:16.615Z,48.74
2016-06-10T04:53:16.619Z,47.49
2016-06-10T04:54:16.621Z,47.03
2016-06-10T04:55:16.640Z,47.31
2016-06-10T04:56:16.470Z,46.08
2016-06-10T04:57:16.631Z,44.73
2016-06-10T04:58:16.634Z,44.73
2016-06-10T04:59:16.637Z,44.83
2016-06-10T05:00:16.640Z,44.73
2016-06-10T05:01:16.643Z,45.03
2016-06-10T05:02:16.646Z,44.46
2016-06-10T05:03:16.665Z,44.46
2016-06-10T05:04:16.652Z,43.7
2016-06-10T05:05:16.655Z,43.24
2016-06-10T05:06:16.673Z,42.18
2016-06-10T05:07:16.677Z,42.18
2016-06-10T05:08:16.679Z,42.36
2016-06-10T05:09:16.682Z,41.78
2016-06-10T05:10:16.686Z,41.88
2016-06-10T05:11:17.314Z,41.4
2016-06-10T05:12:16.691Z,41.13
2016-06-10T05:13:16.695Z,41.23
2016-06-10T05:14:16.698Z,41.11
2016-06-10T05:15:16.701Z,41.5
2016-06-10T05:16:16.704Z,41.96
2016-06-10T05:17:16.723Z,42.25
2016-06-10T05:18:16.726Z,41.57
2016-06-10T05:19:16.729Z,41.38
2016-06-10T05:20:16.733Z,41.38
2016-06-10T05:21:16.752Z,41.77
2016-06-10T05:22:16.738Z,41.38
2016-06-10T05:23:16.742Z,41.67
2016-06-10T05:24:16.761Z,41.38
2016-06-10T05:25:16.764Z,40.34
2016-06-10T05:26:16.767Z,40.15
2016-06-10T05:27:16.770Z,39.95
2016-06-10T05:28:16.773Z,39.69
2016-06-10T05:29:16.776Z,39.32
2016-06-10T05:30:16.779Z,39.39
2016-06-10T05:31:16.782Z,39.49
2016-06-10T05:32:16.800Z,39.29
2016-06-10T05:33:16.803Z,38.74
2016-06-10T05:34:16.806Z,38.54
2016-06-10T05:35:16.810Z,38.54
2016-06-10T05:36:16.813Z,38.54
2016-06-10T05:37:16.816Z,38.56
2016-06-10T05:38:16.835Z,37.88
2016-06-10T05:39:16.838Z,37.5
2016-06-10T05:40:16.841Z,37.3
2016-06-10T05:41:16.688Z,36.84
2016-06-10T05:42:16.847Z,37.12
2016-06-10T05:43:16.850Z,37.5
2016-06-10T05:44:16.854Z,38.35
2016-06-10T05:45:16.871Z,39.39
2016-06-10T05:46:16.874Z,39.01
2016-06-10T05:47:16.862Z,38.81
2016-06-10T05:48:16.865Z,38.35
2016-06-10T05:49:16.869Z,38.54
2016-06-10T05:50:16.872Z,37.5
2016-06-10T05:51:16.890Z,36.46
2016-06-10T05:52:16.877Z,35.6
2016-06-10T05:53:16.881Z,34.45
2016-06-10T05:54:16.884Z,34.36
2016-06-10T05:55:16.887Z,34.09
2016-06-10T05:56:17.171Z,33.02
2016-06-10T05:57:16.893Z,32.56
2016-06-10T05:58:16.896Z,33.04
2016-06-10T05:59:16.915Z,33.12
2016-06-10T06:00:16.903Z,33.02
2016-06-10T06:01:16.905Z,32.82
2016-06-10T06:02:16.908Z,32.82
2016-06-10T06:03:16.911Z,32.82
2016-06-10T06:04:16.915Z,32.94
2016-06-10T06:05:16.933Z,31.99
2016-06-10T06:06:16.920Z,30.07
2016-06-10T06:07:16.924Z,29.4
2016-06-10T06:08:16.927Z,29.51
2016-06-10T06:09:16.945Z,29.79
2016-06-10T06:10:16.933Z,29.3
2016-06-10T06:11:17.467Z,29.3
2016-06-10T06:12:16.939Z,29.6
2016-06-10T06:13:17.036Z,29.6
2016-06-10T06:14:16.946Z,30.74
2016-06-10T06:15:16.932Z,31.21
2016-06-10T06:16:16.936Z,31.6
2016-06-10T06:17:16.955Z,30.16
2016-06-10T06:18:16.942Z,29.3
2016-06-10T06:19:16.945Z,28.34
2016-06-10T06:20:16.948Z,28.17
2016-06-10T06:21:16.951Z,27.89
2016-06-10T06:22:16.954Z,27.42
2016-06-10T06:23:16.957Z,25.59
2016-06-10T06:24:16.960Z,25.12
2016-06-10T06:25:16.963Z,24.54
2016-06-10T06:26:17.685Z,24.54
2016-06-10T06:27:16.969Z,24.83
2016-06-10T06:28:16.817Z,25.3
2016-06-10T06:29:16.976Z,25.87
2016-06-10T06:30:16.978Z,25.97
2016-06-10T06:31:16.981Z,25.67
2016-06-10T06:32:16.985Z,25.38
2016-06-10T06:33:16.973Z,25.38
2016-06-10T06:34:16.976Z,26.26
2016-06-10T06:35:16.979Z,26.93
2016-06-10T06:36:16.982Z,26.25
2016-06-10T06:37:16.985Z,25.67
2016-06-10T06:38:16.988Z,25.08
2016-06-10T06:39:16.991Z,24.9
2016-06-10T06:40:16.994Z,24.91
2016-06-10T06:41:17.185Z,24.54
2016-06-10T06:42:17.000Z,23.95
2016-06-10T06:43:17.003Z,23.47
2016-06-10T06:44:16.991Z,22.41
2016-06-10T06:45:16.994Z,21.66
2016-06-10T06:46:16.997Z,20.61
2016-06-10T06:47:17.000Z,20.51
2016-06-10T06:48:17.003Z,19.93
2016-06-10T06:49:17.006Z,19.93
2016-06-10T06:50:17.009Z,20.9
2016-06-10T06:51:17.012Z,21.95
2016-06-10T06:52:17.000Z,22.42
2016-06-10T06:53:17.018Z,23.19
2016-06-10T06:54:17.005Z,23.88
2016-06-10T06:55:17.008Z,23.96
2016-06-10T06:56:17.011Z,23.66
2016-06-10T06:57:17.015Z,23.56
2016-06-10T06:58:17.018Z,23.95
2016-06-10T06:59:17.021Z,24.05
2016-06-10T07:00:17.023Z,24.05
2016-06-10T07:01:17.027Z,24.15
2016-06-10T07:02:17.030Z,23.36
2016-06-10T07:03:16.877Z,22.99
2016-06-10T07:04:17.021Z,23.38
2016-06-10T07:05:17.025Z,23.38
2016-06-10T07:06:17.027Z,24.06
2016-06-10T07:07:17.030Z,23.96
2016-06-10T07:08:17.034Z,23.96
2016-06-10T07:09:17.052Z,23.47
2016-06-10T07:10:17.040Z,23.38
2016-06-10T07:11:17.901Z,22.22
2016-06-10T07:12:17.046Z,21.84
2016-06-10T07:13:17.049Z,20.98
2016-06-10T07:14:17.052Z,19.83
2016-06-10T07:15:17.055Z,19.35
2016-06-10T07:16:17.042Z,19.74
2016-06-10T07:17:17.045Z,19.55
2016-06-10T07:18:17.064Z,19.65
2016-06-10T07:19:17.051Z,19.83
2016-06-10T07:20:17.054Z,19.73
2016-06-10T07:21:17.058Z,18.96
2016-06-10T07:22:17.044Z,18.19
2016-06-10T07:23:17.047Z,18.21
2016-06-10T07:24:17.238Z,18.49
2016-06-10T07:25:17.679Z,18.68
2016-06-10T07:26:17.057Z,18.58
2016-06-10T07:27:17.060Z,18.48
2016-06-10T07:28:17.063Z,18.19
2016-06-10T07:29:17.066Z,18.39
2016-06-10T07:30:17.069Z,18.39
2016-06-10T07:31:17.058Z,18.11
2016-06-10T07:32:16.919Z,17.63
2016-06-10T07:33:17.078Z,17.82
2016-06-10T07:34:17.082Z,17.24
2016-06-10T07:35:17.069Z,18.11
2016-06-10T07:36:17.072Z,18.59
2016-06-10T07:37:17.075Z,19.07
2016-06-10T07:38:17.079Z,18.58
2016-06-10T07:39:17.082Z,18.19
2016-06-10T07:40:17.085Z,17.43
2016-06-10T07:41:17.072Z,16.27
2016-06-10T07:42:17.075Z,15.22
2016-06-10T07:43:17.078Z,15.31
2016-06-10T07:44:17.082Z,15.61
2016-06-10T07:45:17.084Z,15.99
2016-06-10T07:46:17.087Z,15.99
2016-06-10T07:47:17.090Z,16.18
2016-06-10T07:48:17.093Z,15.99
2016-06-10T07:49:17.097Z,16.09
2016-06-10T07:50:16.943Z,15.41
2016-06-10T07:51:17.103Z,15.41
2016-06-10T07:52:17.090Z,15.41
2016-06-10T07:53:17.108Z,15.22
2016-06-10T07:54:17.097Z,14.63
2016-06-10T07:55:17.100Z,14.63
2016-06-10T07:56:17.462Z,14.73
2016-06-10T07:57:17.106Z,15.12
2016-06-10T07:58:17.110Z,15.03
2016-06-10T07:59:17.112Z,14.43
2016-06-10T08:00:17.115Z,14.92
2016-06-10T08:01:17.103Z,15.02
2016-06-10T08:02:17.106Z,15.12
2016-06-10T08:03:16.952Z,15.31
2016-06-10T08:04:17.112Z,15.22
2016-06-10T08:05:17.115Z,14.53
2016-06-10T08:06:17.118Z,14.24
2016-06-10T08:07:17.137Z,14.74
2016-06-10T08:08:17.124Z,14.83
2016-06-10T08:09:18.064Z,15.42
2016-06-10T08:10:17.130Z,15.6
2016-06-10T08:11:17.133Z,15.2
2016-06-10T08:12:17.120Z,15.4
2016-06-10T08:13:17.140Z,16.08
2016-06-10T08:14:17.127Z,16.86
2016-06-10T08:15:17.129Z,16.75
2016-06-10T08:16:17.133Z,17.14
2016-06-10T08:17:17.136Z,17.92
2016-06-10T08:18:17.138Z,18.1
2016-06-10T08:19:17.142Z,18.29
2016-06-10T08:20:16.989Z,19.35
2016-06-10T08:21:17.148Z,19.73
2016-06-10T08:22:17.151Z,19.53
2016-06-10T08:23:17.139Z,18.56
2016-06-10T08:24:17.423Z,17.79
2016-06-10T08:25:17.879Z,17.11
2016-06-10T08:26:17.148Z,17.32
2016-06-10T08:27:17.151Z,16.64
2016-06-10T08:28:17.154Z,16.06
2016-06-10T08:29:17.157Z,15.39
2016-06-10T08:30:17.003Z,15.39
2016-06-10T08:31:17.163Z,15.39
2016-06-10T08:32:17.167Z,16.27
2016-06-10T08:33:17.169Z,16.16
2016-06-10T08:34:17.015Z,15.48
2016-06-10T08:35:17.159Z,14.51
2016-06-10T08:36:17.163Z,15
2016-06-10T08:37:17.166Z,14.32
2016-06-10T08:38:17.169Z,14.9
2016-06-10T08:39:17.172Z,14.81
2016-06-10T08:40:17.191Z,14.9
2016-06-10T08:41:17.022Z,14.9
2016-06-10T08:42:17.182Z,15.19
2016-06-10T08:43:17.184Z,15.58
2016-06-10T08:44:17.171Z,15.28
2016-06-10T08:45:17.174Z,15.19
2016-06-10T08:46:17.177Z,14.31
2016-06-10T08:47:17.181Z,14.42
2016-06-10T08:48:17.184Z,14.03
2016-06-10T08:49:17.203Z,14.43
2016-06-10T08:50:17.206Z,15.01
2016-06-10T08:51:17.193Z,14.81
2016-06-10T08:52:17.212Z,14.81
2016-06-10T08:53:17.199Z,14.9
2016-06-10T08:54:17.202Z,15.1
2016-06-10T08:55:17.191Z,15.1
2016-06-10T08:56:17.209Z,15.19
2016-06-10T08:57:17.743Z,14.9
2016-06-10T08:58:17.215Z,14.91
2016-06-10T08:59:17.203Z,14.23
2016-06-10T09:00:17.206Z,14.14
2016-06-10T09:01:17.209Z,14.34
2016-06-10T09:02:17.212Z,13.66
2016-06-10T09:03:17.230Z,13.07
2016-06-10T09:04:17.218Z,13.36
2016-06-10T09:05:17.205Z,13.76
2016-06-10T09:06:17.225Z,13.84
2016-06-10T09:07:17.228Z,14.03
2016-06-10T09:08:17.214Z,14.22
2016-06-10T09:09:17.217Z,14.22
2016-06-10T09:10:17.220Z,14.7
2016-06-10T09:11:17.223Z,14.5
2016-06-10T09:12:17.445Z,14.12
2016-06-10T09:13:17.229Z,14.22
2016-06-10T09:14:17.233Z,14.12
2016-06-10T09:15:17.236Z,14.11
2016-06-10T09:16:17.238Z,14.98
2016-06-10T09:17:17.242Z,14.59
2016-06-10T09:18:17.245Z,14.29
2016-06-10T09:19:17.248Z,13.71
2016-06-10T09:20:17.236Z,13.81
2016-06-10T09:21:17.239Z,13.9
2016-06-10T09:22:17.242Z,13.91
2016-06-10T09:23:17.245Z,13.62
2016-06-10T09:24:17.249Z,13.53
2016-06-10T09:25:17.252Z,13.14
2016-06-10T09:26:17.255Z,13.54
2016-06-10T09:27:17.101Z,13.24
2016-06-10T09:28:17.261Z,12.95
2016-06-10T09:29:17.263Z,12.96
2016-06-10T09:30:17.267Z,13.25
2016-06-10T09:31:17.270Z,13.05
2016-06-10T09:32:17.273Z,12.85
2016-06-10T09:33:17.277Z,12.46
2016-06-10T09:34:17.263Z,12.57
2016-06-10T09:35:17.266Z,12.26
2016-06-10T09:36:17.269Z,12.16
2016-06-10T09:37:17.272Z,11.87
2016-06-10T09:38:17.275Z,12.06
2016-06-10T09:39:17.278Z,12.16
2016-06-10T09:40:17.282Z,12.35
2016-06-10T09:41:17.269Z,12.45
2016-06-10T09:42:17.335Z,12.74
2016-06-10T09:43:17.572Z,13.02
2016-06-10T09:44:17.294Z,13.42
2016-06-10T09:45:17.281Z,13.7
2016-06-10T09:46:17.300Z,13.6
2016-06-10T09:47:17.287Z,14.28
2016-06-10T09:48:17.290Z,14.86
2016-06-10T09:49:17.294Z,14.84
2016-06-10T09:50:17.297Z,15.81
2016-06-10T09:51:17.299Z,15.9
2016-06-10T09:52:17.303Z,16.47
2016-06-10T09:53:17.306Z,17.05
2016-06-10T09:54:17.153Z,17.33
2016-06-10T09:55:17.328Z,17.33
2016-06-10T09:56:17.315Z,17.8
2016-06-10T09:57:17.740Z,19.26
2016-06-10T09:58:17.321Z,19.83
2016-06-10T09:59:17.324Z,20.7
2016-06-10T10:00:17.312Z,20.88
2016-06-10T10:01:17.315Z,21.55
2016-06-10T10:02:17.318Z,22.12
2016-06-10T10:03:17.321Z,22.8
2016-06-10T10:04:17.325Z,22.79
2016-06-10T10:05:17.328Z,23.18
2016-06-10T10:06:17.331Z,23.47
2016-06-10T10:07:17.334Z,23.65
2016-06-10T10:08:17.337Z,24.04
2016-06-10T10:09:17.324Z,24.72
2016-06-10T10:10:17.343Z,24.9
2016-06-10T10:11:17.346Z,26.06
2016-06-10T10:12:17.192Z,25.96
2016-06-10T10:13:17.336Z,25.87
2016-06-10T10:14:17.339Z,26.15
2016-06-10T10:15:17.358Z,26.43
2016-06-10T10:16:17.346Z,26.82
2016-06-10T10:17:17.348Z,27.31
2016-06-10T10:18:17.351Z,27.4
2016-06-10T10:19:17.354Z,27.31
2016-06-10T10:20:17.358Z,27.7
2016-06-10T10:21:17.361Z,27.79
2016-06-10T10:22:17.207Z,27.11
2016-06-10T10:23:17.367Z,26.82
2016-06-10T10:24:17.370Z,26.82
2016-06-10T10:25:17.373Z,27.68
2016-06-10T10:26:17.376Z,28.05
2016-06-10T10:27:17.379Z,28.64
2016-06-10T10:28:17.866Z,28.52
2016-06-10T10:29:17.385Z,28.54
2016-06-10T10:30:17.372Z,28.64
2016-06-10T10:31:17.375Z,28.54
2016-06-10T10:32:17.378Z,28.92
2016-06-10T10:33:17.381Z,29.13
2016-06-10T10:34:17.385Z,29.13
2016-06-10T10:35:17.388Z,29.13
2016-06-10T10:36:17.235Z,29.52
2016-06-10T10:37:17.394Z,29.61
2016-06-10T10:38:17.397Z,29.15
2016-06-10T10:39:17.400Z,28.86
2016-06-10T10:40:17.403Z,28.86
2016-06-10T10:41:17.392Z,28.08
2016-06-10T10:42:17.395Z,28.38
2016-06-10T10:43:17.413Z,28.47
2016-06-10T10:44:17.400Z,28.29
2016-06-10T10:45:17.419Z,27.81
2016-06-10T10:46:17.407Z,27.81
2016-06-10T10:47:17.409Z,28.39
2016-06-10T10:48:17.412Z,28.09
2016-06-10T10:49:17.415Z,27.51
2016-06-10T10:50:17.419Z,27.71
2016-06-10T10:51:17.422Z,27.51
2016-06-10T10:52:17.409Z,27.81
2016-06-10T10:53:17.412Z,27.42
2016-06-10T10:54:17.415Z,26.54
2016-06-10T10:55:17.434Z,26.43
2016-06-10T10:56:17.266Z,26.63
2016-06-10T10:57:18.347Z,27.4
2016-06-10T10:58:17.522Z,27.4
2016-06-10T10:59:17.462Z,27.5
2016-06-10T11:00:17.433Z,27.6
2016-06-10T11:01:17.436Z,27.4
2016-06-10T11:02:17.439Z,27.11
2016-06-10T11:03:17.459Z,27.31
2016-06-10T11:04:17.446Z,27.29
2016-06-10T11:05:17.449Z,27.29
2016-06-10T11:06:17.452Z,27.68
2016-06-10T11:07:17.455Z,27.58
2016-06-10T11:08:17.458Z,27.68
2016-06-10T11:09:17.446Z,27.49
2016-06-10T11:10:17.449Z,27.49
2016-06-10T11:11:17.453Z,27.58
2016-06-10T11:12:17.314Z,27.29
2016-06-10T11:13:18.084Z,26.9
2016-06-10T11:14:17.461Z,26.9
2016-06-10T11:15:17.464Z,26.81
2016-06-10T11:16:17.468Z,26.52
2016-06-10T11:17:17.471Z,26.53
2016-06-10T11:18:17.474Z,26.81
2016-06-10T11:19:17.477Z,26.23
2016-06-10T11:20:17.480Z,27
2016-06-10T11:21:17.484Z,27.2
2016-06-10T11:22:17.471Z,27.1
2016-06-10T11:23:17.473Z,27.57
2016-06-10T11:24:17.477Z,27.37
2016-06-10T11:25:17.479Z,27.47
2016-06-10T11:26:17.483Z,27.37
2016-06-10T11:27:17.689Z,27.37
2016-06-10T11:28:17.489Z,26.9
2016-06-10T11:29:17.492Z,26.62
2016-06-10T11:30:17.494Z,26.81
2016-06-10T11:31:17.498Z,26.61
2016-06-10T11:32:17.501Z,26.23
2016-06-10T11:33:17.504Z,26.72
2016-06-10T11:34:17.507Z,26.42
2016-06-10T11:35:17.510Z,26.52
2016-06-10T11:36:17.513Z,26.32
2016-06-10T11:37:17.516Z,26.79
2016-06-10T11:38:17.503Z,27.58
2016-06-10T11:39:17.507Z,27.68
2016-06-10T11:40:17.510Z,27.68
2016-06-10T11:41:17.512Z,27.87
2016-06-10T11:42:17.531Z,28.26
2016-06-10T11:43:17.519Z,28.36
2016-06-10T11:44:17.537Z,28.07
2016-06-10T11:45:17.579Z,27.58
2016-06-10T11:46:17.621Z,27.68
2016-06-10T11:47:17.664Z,28.07
2016-06-10T11:48:17.706Z,28.75
2016-06-10T11:49:17.738Z,28.85
2016-06-10T11:50:17.741Z,28.85
2016-06-10T11:51:17.758Z,28.94
2016-06-10T11:52:17.791Z,28.85
2016-06-10T11:53:17.808Z,29.03
2016-06-10T11:54:17.821Z,28.65
2016-06-10T11:55:17.829Z,28.94
2016-06-10T11:56:17.822Z,29.13
2016-06-10T11:57:18.049Z,29.23
2016-06-10T11:58:17.714Z,28.85
2016-06-10T11:59:17.861Z,28.36
2016-06-10T12:00:17.850Z,28.26
2016-06-10T12:01:17.855Z,28.07
2016-06-10T12:02:17.861Z,28.45
2016-06-10T12:03:17.866Z,28.07
2016-06-10T12:04:17.870Z,28.55
2016-06-10T12:05:17.857Z,28.26
2016-06-10T12:06:17.877Z,28.36
2016-06-10T12:07:17.880Z,28.17
2016-06-10T12:08:17.868Z,28.18
2016-06-10T12:09:17.887Z,28.36
2016-06-10T12:10:17.874Z,28.17
2016-06-10T12:11:17.894Z,28.17
2016-06-10T12:12:17.898Z,27.78
2016-06-10T12:13:17.994Z,27.87
2016-06-10T12:14:17.889Z,28.17
2016-06-10T12:15:17.891Z,27.58
2016-06-10T12:16:17.895Z,27.58
2016-06-10T12:17:17.897Z,27.2
2016-06-10T12:18:17.901Z,27.29
2016-06-10T12:19:17.904Z,26.82
2016-06-10T12:20:17.766Z,26.14
2016-06-10T12:21:17.910Z,26.23
2016-06-10T12:22:17.913Z,26.42
2016-06-10T12:23:17.916Z,25.94
2016-06-10T12:24:17.904Z,25.65
2016-06-10T12:25:17.923Z,25.46
2016-06-10T12:26:17.925Z,25.26
2016-06-10T12:27:17.928Z,24.78
2016-06-10T12:28:17.932Z,24.39
2016-06-10T12:29:17.918Z,24.58
2016-06-10T12:30:17.922Z,24.29
2016-06-10T12:31:17.925Z,24.1
2016-06-10T12:32:17.927Z,24.19
2016-06-10T12:33:17.930Z,23.81
2016-06-10T12:34:17.950Z,23.71
2016-06-10T12:35:17.953Z,23.81
2016-06-10T12:36:17.956Z,23.91
2016-06-10T12:37:17.943Z,23.71
2016-06-10T12:38:17.946Z,23.91
2016-06-10T12:39:17.950Z,23.82
2016-06-10T12:40:17.952Z,24.21
2016-06-10T12:41:17.940Z,24.1
2016-06-10T12:42:17.943Z,24.29
2016-06-10T12:43:18.087Z,24.68
2016-06-10T12:44:17.965Z,24.68
2016-06-10T12:45:17.953Z,24.39
2016-06-10T12:46:17.956Z,24.39
2016-06-10T12:47:17.959Z,24.49
2016-06-10T12:48:17.977Z,23.71
2016-06-10T12:49:17.965Z,24.28
2016-06-10T12:50:17.968Z,24.86
2016-06-10T12:51:17.972Z,24.28
2016-06-10T12:52:17.974Z,24.48
2016-06-10T12:53:17.978Z,24.57
2016-06-10T12:54:17.980Z,24.96
2016-06-10T12:55:17.983Z,25.44